Time;durP1;ratioP1;P1;durP2;ratioP2;P2;SDS_P1;SDS_P2;PMS_P1;PMS_P2;Temp;Humidity;BMP_temperature;BMP_pressure;BME280_temperature;BME280_humidity;BME280_pressure;Samples;Min_cycle;Max_cycle;Signal;HPM_P1;HPM_P2
2023/11/11 00:00:20;;;;;;;1.75;1.00;;;5.70;99.90;;;;;;4986219;28;20233;-74
2023/11/11 00:02:48;;;;;;;2.15;1.00;;;5.60;99.90;;;;;;4994757;28;20620;-74
2023/11/11 00:05:15;;;;;;;1.45;0.95;;;5.70;99.90;;;;;;4993787;28;20213;-74
2023/11/11 00:07:43;;;;;;;1.00;0.90;;;5.70;99.90;;;;;;4994442;28;20205;-74
2023/11/11 00:10:11;;;;;;;1.90;0.77;;;5.70;99.90;;;;;;4994036;28;20211;-74
2023/11/11 00:12:39;;;;;;;2.35;1.17;;;5.60;99.90;;;;;;4994267;28;20225;-73
2023/11/11 04:30:35;;;;;;;0.98;0.88;;;6.00;99.90;;;;;;6044692;23;21589;-73
2023/11/11 04:33:02;;;;;;;1.10;0.80;;;6.00;99.90;;;;;;4989988;28;20252;-73
2023/11/11 04:35:30;;;;;;;1.10;1.00;;;6.00;99.90;;;;;;4991528;28;20277;-73
2023/11/11 04:37:57;;;;;;;2.45;0.90;;;6.00;99.90;;;;;;4993606;28;20224;-72
2023/11/11 04:40:24;;;;;;;1.27;1.17;;;6.00;99.90;;;;;;4993844;28;20211;-73
2023/11/11 04:42:50;;;;;;;1.10;0.90;;;6.00;99.90;;;;;;4993789;28;20212;-75
2023/11/11 04:45:17;;;;;;;1.35;1.00;;;6.00;99.90;;;;;;4993795;28;20208;-75
2023/11/11 04:47:47;;;;;;;1.65;1.30;;;6.00;99.90;;;;;;4993227;28;20296;-75
2023/11/11 04:50:13;;;;;;;1.10;1.00;;;6.00;99.90;;;;;;4993627;28;20215;-75
2023/11/11 04:52:40;;;;;;;1.27;1.17;;;6.00;99.90;;;;;;4993491;28;20624;-74
2023/11/11 04:55:08;;;;;;;1.00;0.90;;;6.00;99.90;;;;;;4993471;28;20231;-73
2023/11/11 04:57:35;;;;;;;0.95;0.85;;;6.00;99.90;;;;;;4993964;28;20254;-72
2023/11/11 05:00:05;;;;;;;1.45;1.00;;;6.00;99.90;;;;;;4993930;28;20583;-73
2023/11/11 05:02:32;;;;;;;0.93;0.80;;;6.00;99.90;;;;;;4993381;28;20320;-73
2023/11/11 05:05:00;;;;;;;0.95;0.80;;;6.00;99.90;;;;;;4992888;28;20205;-73
2023/11/11 05:07:27;;;;;;;1.15;1.00;;;6.00;99.90;;;;;;4992684;28;20667;-73
2023/11/11 05:09:54;;;;;;;1.02;0.90;;;6.00;99.90;;;;;;4993178;28;20219;-73
2023/11/11 05:12:21;;;;;;;1.13;0.90;;;6.00;99.90;;;;;;4989577;28;20229;-73
2023/11/11 05:14:49;;;;;;;1.10;1.00;;;6.00;99.90;;;;;;4992743;28;20228;-73
2023/11/11 05:17:25;;;;;;;1.33;1.23;;;6.00;99.90;;;;;;4993171;28;20315;-73
2023/11/11 05:19:53;;;;;;;1.30;1.20;;;6.00;99.90;;;;;;4993012;28;20221;-73
2023/11/11 05:22:21;;;;;;;1.10;1.00;;;6.00;99.90;;;;;;4993277;28;20237;-73
2023/11/11 05:24:47;;;;;;;1.25;1.00;;;6.00;99.90;;;;;;4992219;28;20703;-73
2023/11/11 05:27:15;;;;;;;1.38;1.10;;;6.00;99.90;;;;;;4993080;28;20572;-74
2023/11/11 05:29:42;;;;;;;1.77;1.02;;;6.00;99.90;;;;;;4992706;28;20346;-73
2023/11/11 05:32:08;;;;;;;1.35;1.05;;;6.00;99.90;;;;;;4987023;28;20241;-73
2023/11/11 05:34:36;;;;;;;1.42;1.15;;;6.00;99.90;;;;;;4982078;28;20228;-73
2023/11/11 05:37:03;;;;;;;1.30;1.17;;;6.00;99.90;;;;;;4983478;28;20245;-74
2023/11/11 05:39:31;;;;;;;1.90;1.20;;;5.90;99.90;;;;;;4981715;28;20251;-72
2023/11/11 05:41:58;;;;;;;1.23;1.05;;;6.00;99.90;;;;;;4983794;28;20232;-73
2023/11/11 05:44:25;;;;;;;1.08;0.90;;;6.00;99.90;;;;;;4980711;28;20214;-73
2023/11/11 05:46:51;;;;;;;0.98;0.93;;;6.10;99.90;;;;;;4988875;28;20588;-73
2023/11/11 05:49:18;;;;;;;1.45;1.35;;;6.10;99.90;;;;;;4992728;28;20219;-73
2023/11/11 05:51:46;;;;;;;1.58;1.48;;;6.10;99.90;;;;;;4992053;28;20748;-73
2023/11/11 05:54:13;;;;;;;3.58;1.23;;;6.00;99.90;;;;;;4991806;28;20233;-73
2023/11/11 05:56:43;;;;;;;1.42;1.05;;;6.00;99.90;;;;;;4991868;28;20236;-71
2023/11/11 05:59:09;;;;;;;2.35;1.80;;;5.90;99.90;;;;;;4981737;28;20205;-73
2023/11/11 06:01:36;;;;;;;1.73;1.52;;;5.80;99.90;;;;;;4981324;28;20230;-73
2023/11/11 06:04:03;;;;;;;2.85;1.60;;;5.70;99.90;;;;;;4981774;28;20227;-73
2023/11/11 06:06:30;;;;;;;1.55;1.15;;;5.70;99.90;;;;;;4980183;28;20682;-73
2023/11/11 06:08:56;;;;;;;1.90;1.55;;;5.60;99.90;;;;;;4982851;28;20206;-73
2023/11/11 06:11:23;;;;;;;1.33;1.00;;;5.60;99.90;;;;;;4979729;28;20606;-72
2023/11/11 06:13:51;;;;;;;2.30;1.20;;;5.50;99.90;;;;;;4982023;28;20209;-73
2023/11/11 06:16:18;;;;;;;1.85;1.30;;;5.40;99.90;;;;;;4979957;28;20210;-72
2023/11/11 06:18:45;;;;;;;2.47;1.40;;;5.40;99.90;;;;;;4980842;28;20219;-72
2023/11/11 06:21:11;;;;;;;2.70;1.38;;;5.40;99.90;;;;;;4980594;28;20232;-72
2023/11/11 06:23:38;;;;;;;1.48;1.38;;;5.40;99.90;;;;;;4981392;28;20219;-71
2023/11/11 06:26:07;;;;;;;1.60;1.50;;;5.30;99.90;;;;;;4981414;28;20205;-72
2023/11/11 06:28:34;;;;;;;1.83;1.35;;;5.30;99.90;;;;;;4983500;28;20214;-72
2023/11/11 06:31:02;;;;;;;1.13;1.02;;;5.30;99.90;;;;;;4989504;28;20248;-72
2023/11/11 06:33:29;;;;;;;1.50;1.40;;;5.30;99.90;;;;;;4991479;28;20215;-73
2023/11/11 06:35:58;;;;;;;2.70;1.25;;;5.30;99.90;;;;;;4987824;28;20580;-72
2023/11/11 06:38:25;;;;;;;1.15;1.02;;;5.30;99.90;;;;;;4991745;28;20226;-73
2023/11/11 06:40:52;;;;;;;1.80;1.35;;;5.40;99.90;;;;;;4991418;28;20244;-73
2023/11/11 06:43:18;;;;;;;1.38;1.10;;;5.40;99.90;;;;;;4991621;28;20228;-73
2023/11/11 06:45:45;;;;;;;1.27;0.93;;;5.40;99.90;;;;;;4991088;28;20207;-72
2023/11/11 06:48:16;;;;;;;1.85;1.10;;;5.40;99.90;;;;;;4991577;28;20257;-73
2023/11/11 06:50:42;;;;;;;1.20;1.10;;;5.50;99.90;;;;;;4991452;28;20236;-73
2023/11/11 06:53:11;;;;;;;2.85;1.17;;;5.50;99.90;;;;;;4991538;28;20303;-73
2023/11/11 06:55:38;;;;;;;1.42;1.30;;;5.50;99.90;;;;;;4990486;28;20276;-73
2023/11/11 06:58:06;;;;;;;1.55;1.02;;;5.50;99.90;;;;;;4991346;28;20263;-73
2023/11/11 07:00:32;;;;;;;4.05;1.08;;;5.60;99.90;;;;;;4991457;28;20744;-73
2023/11/11 07:02:59;;;;;;;1.10;0.90;;;5.50;99.90;;;;;;4991401;28;20292;-73
2023/11/11 07:05:27;;;;;;;1.00;0.90;;;5.50;99.90;;;;;;4990972;28;20206;-73
2023/11/11 07:07:54;;;;;;;1.45;1.20;;;5.50;99.90;;;;;;4991114;28;20235;-73
2023/11/11 07:10:21;;;;;;;1.88;1.00;;;5.50;99.90;;;;;;4986304;28;20666;-73
2023/11/11 07:12:48;;;;;;;0.95;0.85;;;5.50;99.90;;;;;;4991189;28;20240;-73
2023/11/11 07:15:15;;;;;;;1.00;0.80;;;5.50;99.90;;;;;;4990987;28;20229;-73
2023/11/11 07:17:42;;;;;;;1.65;1.17;;;5.50;99.90;;;;;;4991318;28;20649;-73
2023/11/11 07:20:12;;;;;;;1.10;1.00;;;5.50;99.90;;;;;;4991553;28;20211;-72
2023/11/11 07:22:40;;;;;;;1.00;0.70;;;5.50;99.90;;;;;;4991381;28;20205;-73
2023/11/11 07:25:09;;;;;;;1.00;0.80;;;5.50;99.90;;;;;;4990807;28;20195;-74
2023/11/11 07:27:36;;;;;;;1.95;0.90;;;5.50;99.90;;;;;;4991443;28;20596;-73
2023/11/11 07:30:09;;;;;;;0.98;0.80;;;5.50;99.90;;;;;;4992295;28;20212;-73
2023/11/11 07:32:36;;;;;;;1.42;0.95;;;5.50;99.90;;;;;;4993770;28;20282;-72
2023/11/11 07:35:09;;;;;;;0.88;0.80;;;5.50;99.90;;;;;;4993492;28;20230;-74
2023/11/11 07:37:36;;;;;;;1.15;0.77;;;5.60;99.90;;;;;;4994218;28;20722;-73
2023/11/11 07:40:05;;;;;;;1.65;0.95;;;5.60;99.90;;;;;;4991674;28;20207;-73
2023/11/11 07:42:32;;;;;;;0.90;0.80;;;5.60;99.90;;;;;;4993478;28;20652;-73
2023/11/11 07:44:59;;;;;;;1.17;0.85;;;5.60;99.90;;;;;;4992725;28;20204;-73
2023/11/11 07:47:26;;;;;;;1.00;0.90;;;5.60;99.90;;;;;;4993589;28;20212;-73
2023/11/11 07:49:53;;;;;;;1.10;1.00;;;5.60;99.90;;;;;;4993361;28;20294;-72
2023/11/11 07:52:20;;;;;;;1.10;1.00;;;5.60;99.90;;;;;;4993379;28;20230;-73
2023/11/11 07:54:47;;;;;;;1.30;1.20;;;5.70;99.90;;;;;;4992660;28;20762;-73
2023/11/11 07:57:15;;;;;;;1.90;1.05;;;5.70;99.90;;;;;;4993355;28;20215;-73
2023/11/11 07:59:43;;;;;;;1.10;1.00;;;5.70;99.90;;;;;;4993167;28;20591;-73
2023/11/11 08:02:12;;;;;;;1.10;1.00;;;5.70;99.90;;;;;;4993550;28;20613;-73
2023/11/11 08:04:39;;;;;;;2.33;1.67;;;5.70;99.90;;;;;;4993024;28;20258;-73
2023/11/11 08:07:06;;;;;;;1.00;0.80;;;5.70;99.90;;;;;;4993126;28;20205;-73
2023/11/11 08:09:33;;;;;;;1.10;0.85;;;6.00;99.90;;;;;;4993390;28;20209;-73
2023/11/11 08:11:59;;;;;;;1.95;1.20;;;7.00;99.90;;;;;;4993012;28;20629;-73
2023/11/11 08:14:28;;;;;;;1.23;1.13;;;8.30;99.90;;;;;;4992744;28;20205;-74
2023/11/11 08:16:55;;;;;;;1.13;0.98;;;9.40;99.90;;;;;;4992721;28;20277;-73
2023/11/11 08:19:22;;;;;;;1.15;0.98;;;10.30;99.90;;;;;;4987321;28;20207;-73
2023/11/11 08:21:49;;;;;;;1.25;1.15;;;10.40;99.90;;;;;;4995927;28;20231;-73
2023/11/11 08:24:15;;;;;;;1.10;0.82;;;9.90;99.90;;;;;;4996864;28;20226;-73
2023/11/11 08:26:42;;;;;;;1.55;1.25;;;9.30;99.90;;;;;;4992851;28;20202;-72
2023/11/11 08:29:09;;;;;;;2.65;1.10;;;9.20;99.90;;;;;;4992853;28;20234;-72
2023/11/11 08:31:39;;;;;;;1.70;1.25;;;9.00;99.90;;;;;;4957438;28;1038241;-72
2023/11/11 08:34:06;;;;;;;1.40;1.02;;;8.70;99.90;;;;;;4992959;28;20684;-72
2023/11/11 08:36:32;;;;;;;3.40;1.23;;;8.30;99.90;;;;;;4993929;28;20278;-73
2023/11/11 08:38:59;;;;;;;1.30;1.00;;;7.90;99.90;;;;;;4993470;28;20214;-72
2023/11/11 08:41:26;;;;;;;1.92;1.60;;;7.70;99.90;;;;;;4993083;28;20247;-73
2023/11/11 08:43:53;;;;;;;1.10;1.00;;;7.50;99.90;;;;;;4992937;28;20210;-72
2023/11/11 08:46:19;;;;;;;2.28;1.55;;;7.30;99.90;;;;;;4993711;28;20213;-73
2023/11/11 08:48:47;;;;;;;1.10;1.00;;;7.20;99.90;;;;;;4993443;28;20199;-73
2023/11/11 08:51:15;;;;;;;1.48;1.10;;;7.10;99.90;;;;;;4993846;28;20299;-74
2023/11/11 08:53:41;;;;;;;2.65;1.42;;;7.00;99.90;;;;;;4993424;28;20243;-72
2023/11/11 08:56:08;;;;;;;1.30;1.20;;;7.40;99.90;;;;;;4993042;28;20229;-72
2023/11/11 08:58:35;;;;;;;1.75;1.30;;;7.90;99.90;;;;;;4993310;28;20293;-74
2023/11/11 09:01:01;;;;;;;1.55;1.30;;;8.10;99.90;;;;;;4993091;28;20230;-73
2023/11/11 09:03:28;;;;;;;2.05;1.30;;;8.10;99.90;;;;;;4993398;28;20232;-73
2023/11/11 09:05:56;;;;;;;1.30;1.20;;;7.80;99.90;;;;;;4992736;28;20203;-73
2023/11/11 09:08:24;;;;;;;1.40;1.30;;;7.60;99.90;;;;;;4993444;28;20211;-73
2023/11/11 09:10:51;;;;;;;2.80;1.52;;;7.40;99.90;;;;;;4993108;28;20322;-73
2023/11/11 09:13:20;;;;;;;1.10;1.00;;;7.20;99.90;;;;;;4993260;28;20221;-72
2023/11/11 09:15:47;;;;;;;1.45;1.35;;;7.00;99.90;;;;;;4992390;28;20591;-72
2023/11/11 09:18:14;;;;;;;1.48;1.38;;;6.80;99.90;;;;;;4993108;28;20202;-73
2023/11/11 09:20:41;;;;;;;2.17;1.00;;;6.70;99.90;;;;;;4993079;28;20611;-75
2023/11/11 09:23:09;;;;;;;1.70;1.58;;;6.70;99.90;;;;;;4992051;28;20980;-72
2023/11/11 09:25:35;;;;;;;1.30;1.15;;;6.70;99.90;;;;;;4992921;28;20378;-72
2023/11/11 09:28:03;;;;;;;1.77;1.17;;;6.70;99.90;;;;;;4992886;28;20222;-72
2023/11/11 09:30:30;;;;;;;1.80;1.25;;;6.60;99.90;;;;;;4992580;28;20209;-72
2023/11/11 09:32:58;;;;;;;1.10;1.00;;;6.60;99.90;;;;;;4992808;28;20212;-73
2023/11/11 09:35:25;;;;;;;1.58;1.30;;;6.60;99.90;;;;;;4992478;28;20589;-73
2023/11/11 09:37:52;;;;;;;1.40;1.30;;;6.50;99.90;;;;;;4992547;28;20228;-73
2023/11/11 09:40:20;;;;;;;2.25;1.30;;;6.50;99.90;;;;;;4992735;28;20254;-72
2023/11/11 09:42:47;;;;;;;1.10;1.00;;;6.50;99.90;;;;;;4992789;28;20224;-72
2023/11/11 09:45:14;;;;;;;1.25;1.15;;;6.40;99.90;;;;;;4991967;28;20212;-72
2023/11/11 09:47:44;;;;;;;1.10;1.00;;;6.80;99.90;;;;;;4992664;28;20210;-72
2023/11/11 09:50:13;;;;;;;1.27;1.15;;;8.30;99.90;;;;;;4992317;28;20298;-73
2023/11/11 09:52:42;;;;;;;1.45;1.15;;;11.40;99.90;;;;;;4992645;28;20211;-73
2023/11/11 09:55:09;;;;;;;1.60;1.00;;;14.20;99.90;;;;;;4990783;28;20214;-72
2023/11/11 09:57:39;;;;;;;2.47;1.10;;;16.60;99.90;;;;;;4992511;28;20562;-72
2023/11/11 10:00:10;;;;;;;1.50;1.00;;;18.90;99.90;;;;;;4991959;28;20462;-73
2023/11/11 10:02:37;;;;;;;1.20;1.00;;;20.40;99.90;;;;;;4992329;28;20520;-72
2023/11/11 10:05:05;;;;;;;1.30;1.00;;;19.80;99.20;;;;;;4991533;28;20468;-72
2023/11/11 10:07:33;;;;;;;1.27;0.80;;;17.30;99.90;;;;;;4992178;28;20467;-72
2023/11/11 10:10:00;;;;;;;1.10;1.00;;;15.80;99.90;;;;;;4991834;28;20470;-71
2023/11/11 10:12:27;;;;;;;2.70;1.10;;;13.90;99.90;;;;;;4992141;28;20577;-71
2023/11/11 10:14:58;;;;;;;1.77;1.20;;;12.30;99.90;;;;;;4991357;28;20524;-71
2023/11/11 10:17:24;;;;;;;1.85;0.80;;;11.40;99.90;;;;;;4981293;28;20842;-72
2023/11/11 10:19:52;;;;;;;1.92;1.40;;;10.40;99.90;;;;;;4974016;28;20683;-70
2023/11/11 10:22:19;;;;;;;1.25;1.08;;;9.70;99.90;;;;;;4991771;28;20324;-73
2023/11/11 10:24:46;;;;;;;2.53;1.30;;;9.20;99.90;;;;;;4991954;28;20207;-72
2023/11/11 10:27:13;;;;;;;1.10;1.00;;;8.60;99.90;;;;;;4991713;28;20207;-72
2023/11/11 10:29:40;;;;;;;1.90;1.33;;;8.40;99.90;;;;;;4992057;28;20298;-72
2023/11/11 10:32:12;;;;;;;1.42;1.00;;;8.10;99.90;;;;;;4991585;28;20235;-72
2023/11/11 10:34:40;;;;;;;2.75;1.60;;;8.10;99.90;;;;;;4991760;28;20239;-72
2023/11/11 10:37:09;;;;;;;1.05;0.95;;;8.00;99.90;;;;;;4991403;28;20241;-71
2023/11/11 10:39:39;;;;;;;1.10;1.00;;;7.90;99.90;;;;;;4991753;28;20203;-71
2023/11/11 10:42:06;;;;;;;1.33;1.13;;;7.90;99.90;;;;;;4991405;28;20231;-72
2023/11/11 10:44:33;;;;;;;1.60;1.40;;;7.80;99.90;;;;;;4991270;28;20199;-72
2023/11/11 10:46:59;;;;;;;1.63;1.50;;;7.70;99.90;;;;;;4991525;28;20250;-71
2023/11/11 10:49:28;;;;;;;2.58;1.30;;;7.70;99.90;;;;;;4991476;28;20211;-71
2023/11/11 10:51:56;;;;;;;1.65;1.20;;;9.00;99.90;;;;;;4991338;28;20231;-71
2023/11/11 10:54:25;;;;;;;1.70;1.30;;;10.70;99.90;;;;;;4983373;28;20226;-71
2023/11/11 10:56:53;;;;;;;1.40;1.30;;;11.50;99.90;;;;;;4991501;28;20227;-71
2023/11/11 10:59:22;;;;;;;1.20;1.00;;;11.50;99.90;;;;;;4991164;28;20203;-72
2023/11/11 11:01:49;;;;;;;2.15;1.17;;;11.20;99.90;;;;;;4991476;28;20231;-71
2023/11/11 11:04:16;;;;;;;2.17;1.40;;;10.60;99.90;;;;;;4990613;28;20572;-71
2023/11/11 11:06:52;;;;;;;1.25;1.13;;;10.10;99.90;;;;;;4995335;28;20199;-71
2023/11/11 11:09:27;;;;;;;1.30;1.20;;;9.60;99.90;;;;;;4995127;28;20211;-71
2023/11/11 11:12:05;;;;;;;1.65;1.33;;;9.20;99.90;;;;;;4995297;28;20227;-71
2023/11/11 11:14:41;;;;;;;2.05;1.35;;;8.90;99.90;;;;;;4988675;28;20214;-72
2023/11/11 11:17:09;;;;;;;1.73;1.08;;;8.50;99.90;;;;;;4994944;28;20227;-71
2023/11/11 11:19:55;;;;;;;1.20;0.95;;;8.30;99.90;;;;;;4995460;28;20203;-71
2023/11/11 11:22:33;;;;;;;1.70;1.27;;;8.20;99.90;;;;;;4995091;28;20233;-71
2023/11/11 11:24:59;;;;;;;1.65;1.38;;;8.00;99.90;;;;;;4994694;28;20218;-71
2023/11/11 11:27:28;;;;;;;1.20;1.10;;;7.90;99.90;;;;;;4994975;28;20203;-71
2023/11/11 11:29:55;;;;;;;2.45;1.65;;;7.80;99.90;;;;;;4995072;28;20230;-70
2023/11/11 11:32:24;;;;;;;2.20;1.48;;;7.60;99.90;;;;;;4994447;28;20235;-73
2023/11/11 11:35:37;;;;;;;1.83;1.25;;;8.50;99.90;;;;;;4994683;28;20203;-71
2023/11/11 11:38:06;;;;;;;1.25;1.15;;;9.50;99.90;;;;;;4932574;29;20210;-72
2023/11/11 11:40:35;;;;;;;1.58;1.30;;;11.60;99.90;;;;;;4980911;28;20227;-72
2023/11/11 11:43:09;;;;;;;1.70;1.10;;;13.20;99.90;;;;;;4992713;28;20240;-71
2023/11/11 11:45:37;;;;;;;1.10;1.00;;;13.50;99.90;;;;;;4992849;28;20209;-72
2023/11/11 11:48:05;;;;;;;1.23;1.13;;;12.90;99.90;;;;;;4992074;28;20215;-72
2023/11/11 11:50:32;;;;;;;1.55;1.20;;;12.40;99.90;;;;;;4993300;28;20240;-72
2023/11/11 11:52:59;;;;;;;2.05;1.40;;;11.80;99.90;;;;;;4992745;28;20223;-72
2023/11/11 11:55:35;;;;;;;1.30;1.10;;;11.20;99.90;;;;;;4992059;28;20251;-71
2023/11/11 11:58:03;;;;;;;3.40;1.40;;;11.00;99.90;;;;;;4991668;28;20224;-71
2023/11/11 12:00:30;;;;;;;1.83;1.27;;;11.20;99.90;;;;;;4992693;28;20212;-72
2023/11/11 12:02:58;;;;;;;1.10;1.00;;;11.60;99.90;;;;;;4992429;28;20579;-72
2023/11/11 12:05:25;;;;;;;2.50;1.17;;;12.00;99.90;;;;;;4991260;28;20209;-72
2023/11/11 12:07:53;;;;;;;1.17;1.00;;;12.00;99.90;;;;;;4992476;28;20239;-72
2023/11/11 12:10:20;;;;;;;1.10;1.00;;;11.50;99.90;;;;;;4990866;28;20219;-72
2023/11/11 12:12:49;;;;;;;2.00;0.95;;;11.60;99.90;;;;;;4992388;28;20208;-72
2023/11/11 12:15:17;;;;;;;1.88;1.10;;;11.60;99.90;;;;;;4990195;28;20308;-72
2023/11/11 12:17:45;;;;;;;1.42;1.15;;;11.30;99.90;;;;;;4990886;28;20221;-72
2023/11/11 12:20:14;;;;;;;1.20;1.10;;;11.00;99.90;;;;;;4990534;28;20248;-72
2023/11/11 12:22:43;;;;;;;1.73;1.17;;;10.70;99.90;;;;;;4994161;28;20203;-72
2023/11/11 12:25:10;;;;;;;2.15;1.27;;;10.50;99.90;;;;;;4993084;28;20366;-72
2023/11/11 12:27:37;;;;;;;1.10;1.00;;;10.80;99.90;;;;;;4994223;28;20196;-72
2023/11/11 12:30:19;;;;;;;1.52;1.20;;;11.30;99.90;;;;;;4994141;28;20231;-72
2023/11/11 12:33:00;;;;;;;1.27;1.17;;;11.60;99.90;;;;;;4994008;28;20680;-72
2023/11/11 12:35:28;;;;;;;2.58;1.20;;;11.30;99.90;;;;;;4992915;28;20692;-72
2023/11/11 12:37:55;;;;;;;1.58;1.15;;;11.30;99.90;;;;;;4993924;28;20314;-72
2023/11/11 12:40:30;;;;;;;1.30;1.02;;;11.70;99.90;;;;;;4992337;28;20221;-72
2023/11/11 12:42:57;;;;;;;1.45;1.30;;;11.90;99.90;;;;;;4993947;28;20214;-72
2023/11/11 12:45:25;;;;;;;1.63;1.48;;;12.10;99.90;;;;;;4992948;28;20692;-72
2023/11/11 12:47:53;;;;;;;1.48;1.10;;;12.30;99.90;;;;;;4993663;28;20730;-72
2023/11/11 12:50:30;;;;;;;2.97;1.20;;;12.50;99.90;;;;;;4991668;28;20217;-72
2023/11/11 12:53:07;;;;;;;1.50;1.00;;;12.60;99.90;;;;;;4990400;28;20209;-72
2023/11/11 12:55:34;;;;;;;1.20;1.00;;;12.20;99.90;;;;;;4985283;28;20227;-72
2023/11/11 12:58:18;;;;;;;1.58;1.05;;;11.60;99.90;;;;;;4989437;28;20311;-72
2023/11/11 13:00:51;;;;;;;1.20;1.00;;;11.00;99.90;;;;;;4985097;28;20235;-73
2023/11/11 13:03:25;;;;;;;1.65;1.20;;;10.70;99.90;;;;;;4991602;28;20582;-72
2023/11/11 13:05:53;;;;;;;1.10;0.93;;;10.40;99.90;;;;;;4993081;28;20306;-72
2023/11/11 13:08:21;;;;;;;1.20;1.00;;;10.10;99.90;;;;;;4993247;28;20207;-72
2023/11/11 13:10:51;;;;;;;1.63;1.20;;;9.90;99.90;;;;;;4993522;28;20243;-72
2023/11/11 13:13:18;;;;;;;1.55;1.42;;;9.60;99.90;;;;;;4993268;28;20256;-71
2023/11/11 13:15:45;;;;;;;1.10;0.90;;;9.40;99.90;;;;;;4993094;28;20203;-71
2023/11/11 13:18:13;;;;;;;1.30;1.20;;;9.30;99.90;;;;;;4992975;28;20237;-71
2023/11/11 13:20:41;;;;;;;1.95;1.40;;;9.10;99.90;;;;;;4993192;28;20220;-72
2023/11/11 13:23:08;;;;;;;2.50;1.55;;;9.00;99.90;;;;;;4993121;28;20203;-72
2023/11/11 13:25:36;;;;;;;1.50;1.35;;;8.80;99.90;;;;;;4992572;28;20291;-72
2023/11/11 13:28:03;;;;;;;2.08;1.25;;;8.60;99.90;;;;;;4992873;28;20624;-72
2023/11/11 13:30:32;;;;;;;1.00;0.90;;;8.50;99.90;;;;;;4992768;28;20207;-72
2023/11/11 13:33:00;;;;;;;1.33;1.08;;;8.40;99.90;;;;;;4993247;28;20207;-72
2023/11/11 13:35:30;;;;;;;3.05;1.20;;;8.40;99.90;;;;;;4992461;28;20207;-72
2023/11/11 13:37:58;;;;;;;3.75;1.70;;;8.30;99.90;;;;;;4993160;28;20566;-72
2023/11/11 13:40:28;;;;;;;1.40;1.10;;;8.20;99.90;;;;;;4992727;28;20211;-72
2023/11/11 13:42:55;;;;;;;1.20;1.10;;;8.10;99.90;;;;;;4993155;28;20383;-71
2023/11/11 13:45:24;;;;;;;1.23;1.13;;;8.10;99.90;;;;;;4990063;28;20683;-72
2023/11/11 13:47:52;;;;;;;3.28;2.00;;;8.10;99.90;;;;;;4992780;28;20200;-71
2023/11/11 13:50:21;;;;;;;3.40;1.45;;;8.10;99.90;;;;;;4992382;28;20207;-71
2023/11/11 13:52:49;;;;;;;1.40;1.15;;;8.10;99.90;;;;;;4990306;28;20207;-71
2023/11/11 13:55:16;;;;;;;1.60;1.50;;;8.00;99.90;;;;;;4984890;28;20224;-71
2023/11/11 13:57:45;;;;;;;1.50;1.38;;;7.90;99.90;;;;;;4987802;28;20306;-71
2023/11/11 14:00:18;;;;;;;2.03;1.25;;;7.90;99.90;;;;;;4987844;28;20207;-72
2023/11/11 14:02:45;;;;;;;1.50;1.30;;;7.80;99.90;;;;;;4992632;28;20203;-70
2023/11/11 14:05:12;;;;;;;1.35;0.90;;;7.80;99.90;;;;;;4991964;28;20218;-70
2023/11/11 14:07:39;;;;;;;1.45;1.33;;;7.80;99.90;;;;;;4992308;28;20199;-71
2023/11/11 14:10:08;;;;;;;1.95;1.10;;;7.80;99.90;;;;;;4992358;28;20215;-71
2023/11/11 14:12:36;;;;;;;1.35;1.25;;;7.90;99.90;;;;;;4992038;28;20242;-70
2023/11/11 14:15:03;;;;;;;5.95;1.50;;;7.90;99.90;;;;;;4991769;28;20207;-70
2023/11/11 14:17:30;;;;;;;2.88;1.83;;;7.90;99.90;;;;;;4991827;28;20227;-72
2023/11/11 14:19:57;;;;;;;1.25;1.15;;;7.90;99.90;;;;;;4992124;28;20208;-72
2023/11/11 14:22:27;;;;;;;2.30;1.10;;;7.90;99.90;;;;;;4991734;28;20237;-71
2023/11/11 14:24:53;;;;;;;3.38;1.45;;;7.90;99.90;;;;;;4991542;28;20715;-71
2023/11/11 14:27:21;;;;;;;1.85;1.17;;;7.90;99.90;;;;;;4991635;28;20206;-70
2023/11/11 14:29:48;;;;;;;1.35;1.25;;;7.90;99.90;;;;;;4991918;28;20656;-71
2023/11/11 14:32:16;;;;;;;1.80;1.02;;;7.80;99.90;;;;;;4991653;28;20234;-70
2023/11/11 14:34:42;;;;;;;1.25;1.05;;;7.80;99.90;;;;;;4991419;28;20705;-71
2023/11/11 14:37:11;;;;;;;2.15;1.08;;;7.80;99.90;;;;;;4991621;28;20650;-71
2023/11/11 14:39:39;;;;;;;1.55;1.17;;;7.80;99.90;;;;;;4990768;28;20204;-71
2023/11/11 14:42:06;;;;;;;1.42;1.10;;;7.80;99.90;;;;;;4991995;28;20266;-71
2023/11/11 14:44:34;;;;;;;1.38;1.25;;;7.70;99.90;;;;;;4991077;28;20211;-71
2023/11/11 14:47:01;;;;;;;2.47;1.40;;;7.70;99.90;;;;;;4991768;28;20215;-71
2023/11/11 14:49:29;;;;;;;1.20;1.05;;;7.70;99.90;;;;;;4991346;28;20207;-70
2023/11/11 14:51:55;;;;;;;1.60;1.45;;;7.70;99.90;;;;;;4991607;28;20302;-72
2023/11/11 14:54:23;;;;;;;1.20;1.10;;;7.60;99.90;;;;;;4990833;28;20224;-72
2023/11/11 14:56:50;;;;;;;1.30;1.20;;;7.60;99.90;;;;;;4991453;28;20281;-72
2023/11/11 14:59:18;;;;;;;2.17;1.17;;;7.60;99.90;;;;;;4991436;28;20205;-72
2023/11/11 15:01:46;;;;;;;3.03;1.40;;;7.60;99.90;;;;;;4991244;28;20227;-72
2023/11/11 15:04:12;;;;;;;2.35;1.52;;;7.50;99.90;;;;;;4990753;28;20210;-72
2023/11/11 15:06:39;;;;;;;2.97;1.30;;;7.50;99.90;;;;;;4991259;28;21259;-72
2023/11/11 15:09:06;;;;;;;1.40;1.30;;;7.50;99.90;;;;;;4991471;28;20211;-71
2023/11/11 15:11:33;;;;;;;1.40;1.08;;;7.50;99.90;;;;;;4991048;28;20235;-72
2023/11/11 15:14:03;;;;;;;2.53;1.48;;;7.50;99.90;;;;;;4990780;28;20707;-71
2023/11/11 15:16:30;;;;;;;1.83;1.73;;;7.50;99.90;;;;;;4991615;28;20233;-72
2023/11/11 15:18:59;;;;;;;1.20;1.10;;;7.50;99.90;;;;;;4991178;28;20223;-72
2023/11/11 15:21:27;;;;;;;1.40;1.13;;;7.40;99.90;;;;;;4991051;28;20232;-72
2023/11/11 15:23:54;;;;;;;1.80;1.70;;;7.30;99.90;;;;;;4990807;28;20210;-72
2023/11/11 15:26:21;;;;;;;1.50;1.15;;;7.30;99.90;;;;;;4987849;28;20206;-72
2023/11/11 15:28:48;;;;;;;1.45;1.20;;;7.10;99.90;;;;;;4991259;28;20209;-72
2023/11/11 15:31:25;;;;;;;2.03;1.40;;;7.00;99.90;;;;;;4991043;28;20238;-71
2023/11/11 15:33:52;;;;;;;7.35;2.30;;;7.00;99.90;;;;;;4990726;28;20641;-72
2023/11/11 15:36:25;;;;;;;2.42;1.77;;;6.90;99.90;;;;;;4989543;28;20210;-71
2023/11/11 15:38:52;;;;;;;1.30;1.20;;;6.80;99.90;;;;;;4986401;28;20652;-71
2023/11/11 15:41:19;;;;;;;1.77;1.52;;;6.80;99.90;;;;;;4980124;28;20231;-70
2023/11/11 15:43:47;;;;;;;2.60;1.45;;;6.70;99.90;;;;;;4981909;28;20223;-71
2023/11/11 15:46:14;;;;;;;2.33;1.33;;;6.50;99.90;;;;;;4981001;28;20299;-71
2023/11/11 15:48:41;;;;;;;7.05;1.60;;;6.50;99.90;;;;;;4981810;28;20217;-71
2023/11/11 15:51:08;;;;;;;2.53;1.85;;;6.40;99.90;;;;;;4982312;28;20283;-71
2023/11/11 15:53:37;;;;;;;1.20;1.10;;;6.20;99.90;;;;;;4983933;28;20220;-71
2023/11/11 15:56:04;;;;;;;2.03;1.33;;;6.20;99.90;;;;;;4984982;28;20269;-72
2023/11/11 15:58:32;;;;;;;1.90;1.35;;;6.10;99.90;;;;;;4991271;28;20313;-71
2023/11/11 16:00:58;;;;;;;1.33;1.10;;;6.00;99.90;;;;;;4993421;28;20234;-71
2023/11/11 16:03:25;;;;;;;1.25;1.00;;;5.90;99.90;;;;;;4993515;28;20212;-70
2023/11/11 16:05:54;;;;;;;2.05;1.17;;;5.80;99.90;;;;;;4985549;28;20733;-70
2023/11/11 16:08:21;;;;;;;1.70;1.48;;;5.60;99.90;;;;;;4990124;28;20294;-71
2023/11/11 16:10:51;;;;;;;1.77;1.33;;;5.50;99.90;;;;;;4993079;28;20713;-73
2023/11/11 16:13:18;;;;;;;2.25;1.55;;;5.40;99.90;;;;;;4993783;28;20204;-71
2023/11/11 16:15:44;;;;;;;1.30;1.20;;;5.30;99.90;;;;;;4992972;28;20218;-71
2023/11/11 16:18:12;;;;;;;1.75;1.48;;;5.20;99.90;;;;;;4993409;28;20223;-71
2023/11/11 16:20:38;;;;;;;1.65;1.50;;;5.10;99.90;;;;;;4993247;28;20224;-71
2023/11/11 16:23:05;;;;;;;1.83;1.67;;;5.00;99.90;;;;;;4993166;28;20708;-71
2023/11/11 16:25:33;;;;;;;1.73;1.15;;;5.00;99.90;;;;;;4992817;28;20214;-71
2023/11/11 16:28:01;;;;;;;1.50;1.33;;;4.90;99.90;;;;;;4992986;28;20234;-71
2023/11/11 16:30:28;;;;;;;1.23;1.13;;;4.80;99.90;;;;;;4993084;28;20204;-70
2023/11/11 16:32:55;;;;;;;1.85;1.08;;;4.80;99.90;;;;;;4992973;28;20318;-70
2023/11/11 16:35:21;;;;;;;1.63;1.30;;;4.80;99.90;;;;;;4988878;28;20209;-71
2023/11/11 16:37:48;;;;;;;1.60;1.50;;;4.80;99.90;;;;;;4992480;28;20223;-73
2023/11/11 16:40:15;;;;;;;1.85;1.45;;;4.80;99.90;;;;;;4993325;28;20219;-73
2023/11/11 16:42:44;;;;;;;1.88;1.50;;;4.80;99.90;;;;;;4992984;28;20210;-73
2023/11/11 16:45:12;;;;;;;1.80;1.60;;;4.70;99.90;;;;;;4992808;28;20214;-73
2023/11/11 16:47:39;;;;;;;2.47;1.50;;;4.70;99.90;;;;;;4992788;28;20211;-73
2023/11/11 16:50:08;;;;;;;2.05;1.13;;;4.70;99.90;;;;;;4992934;28;20211;-72
2023/11/11 16:52:35;;;;;;;2.63;1.60;;;4.60;99.90;;;;;;4993057;28;20223;-72
2023/11/11 16:55:04;;;;;;;2.10;1.90;;;4.60;99.90;;;;;;4992292;28;20214;-72
2023/11/11 16:57:30;;;;;;;2.35;1.80;;;4.60;99.90;;;;;;4991058;28;20668;-73
2023/11/11 16:59:57;;;;;;;1.75;1.38;;;4.60;99.90;;;;;;4992484;28;20211;-72
2023/11/11 17:02:26;;;;;;;1.55;1.45;;;4.50;99.90;;;;;;4992563;28;20716;-72
2023/11/11 17:04:53;;;;;;;5.93;1.30;;;4.50;99.90;;;;;;4991843;28;20298;-73
2023/11/11 17:07:20;;;;;;;1.80;1.38;;;4.50;99.90;;;;;;4992715;28;20708;-72
2023/11/11 17:09:47;;;;;;;2.28;1.67;;;4.50;99.90;;;;;;4992508;28;20225;-74
2023/11/11 17:12:14;;;;;;;1.30;1.20;;;4.40;99.90;;;;;;4989798;28;20229;-73
2023/11/11 17:14:40;;;;;;;1.95;1.60;;;4.50;99.90;;;;;;4980100;28;20589;-73